sensor_id;sensor_type;location;lat;lon;timestamp;P1;durP1;ratioP1;P2;durP2;ratioP2
13805;SDS011;6974;53.606;9.872;2023-04-06T00:00:55;7.63;;;5.43;;
13805;SDS011;6974;53.606;9.872;2023-04-06T00:03:22;9.60;;;5.97;;
13805;SDS011;6974;53.606;9.872;2023-04-06T00:05:51;8.87;;;6.43;;
13805;SDS011;6974;53.606;9.872;2023-04-06T00:08:18;6.63;;;6.00;;
13805;SDS011;6974;53.606;9.872;2023-04-06T00:10:48;8.03;;;6.03;;
13805;SDS011;6974;53.606;9.872;2023-04-06T00:13:16;8.03;;;6.10;;
13805;SDS011;6974;53.606;9.872;2023-04-06T00:15:43;8.70;;;6.10;;
13805;SDS011;6974;53.606;9.872;2023-04-06T00:18:10;8.47;;;6.13;;
13805;SDS011;6974;53.606;9.872;2023-04-06T00:20:39;8.07;;;5.60;;
13805;SDS011;6974;53.606;9.872;2023-04-06T00:23:08;7.20;;;5.83;;
13805;SDS011;6974;53.606;9.872;2023-04-06T00:25:35;6.47;;;5.50;;
13805;SDS011;6974;53.606;9.872;2023-04-06T00:28:02;7.33;;;5.47;;
13805;SDS011;6974;53.606;9.872;2023-04-06T00:30:30;7.37;;;6.03;;
13805;SDS011;6974;53.606;9.872;2023-04-06T00:32:57;7.87;;;5.93;;
13805;SDS011;6974;53.606;9.872;2023-04-06T00:35:24;7.53;;;6.23;;
13805;SDS011;6974;53.606;9.872;2023-04-06T00:37:52;7.83;;;5.80;;
13805;SDS011;6974;53.606;9.872;2023-04-06T00:40:21;7.80;;;6.10;;
13805;SDS011;6974;53.606;9.872;2023-04-06T00:42:48;7.80;;;5.97;;
13805;SDS011;6974;53.606;9.872;2023-04-06T00:45:15;7.67;;;5.97;;
13805;SDS011;6974;53.606;9.872;2023-04-06T00:47:44;8.50;;;6.37;;
13805;SDS011;6974;53.606;9.872;2023-04-06T00:50:11;9.33;;;6.20;;
13805;SDS011;6974;53.606;9.872;2023-04-06T00:52:39;9.40;;;6.67;;
13805;SDS011;6974;53.606;9.872;2023-04-06T00:55:06;8.80;;;6.67;;
13805;SDS011;6974;53.606;9.872;2023-04-06T00:57:36;6.63;;;5.73;;
13805;SDS011;6974;53.606;9.872;2023-04-06T01:00:04;8.63;;;5.83;;
13805;SDS011;6974;53.606;9.872;2023-04-06T01:02:32;6.50;;;5.60;;
13805;SDS011;6974;53.606;9.872;2023-04-06T01:05:00;10.10;;;6.40;;
13805;SDS011;6974;53.606;9.872;2023-04-06T01:07:27;8.57;;;6.33;;
13805;SDS011;6974;53.606;9.872;2023-04-06T01:09:54;7.93;;;6.20;;
13805;SDS011;6974;53.606;9.872;2023-04-06T01:12:22;10.93;;;6.73;;
13805;SDS011;6974;53.606;9.872;2023-04-06T01:14:51;9.43;;;6.10;;
13805;SDS011;6974;53.606;9.872;2023-04-06T01:17:18;10.73;;;6.90;;
13805;SDS011;6974;53.606;9.872;2023-04-06T01:19:46;9.87;;;6.63;;
13805;SDS011;6974;53.606;9.872;2023-04-06T01:22:16;10.60;;;6.73;;
13805;SDS011;6974;53.606;9.872;2023-04-06T01:24:44;8.03;;;6.87;;
13805;SDS011;6974;53.606;9.872;2023-04-06T01:27:11;9.03;;;6.23;;
13805;SDS011;6974;53.606;9.872;2023-04-06T01:29:39;6.93;;;6.13;;
13805;SDS011;6974;53.606;9.872;2023-04-06T01:32:08;9.10;;;6.70;;
13805;SDS011;6974;53.606;9.872;2023-04-06T01:34:35;7.73;;;6.57;;
13805;SDS011;6974;53.606;9.872;2023-04-06T01:37:02;11.63;;;7.17;;
13805;SDS011;6974;53.606;9.872;2023-04-06T01:39:31;9.30;;;6.60;;
13805;SDS011;6974;53.606;9.872;2023-04-06T01:41:59;9.77;;;6.67;;
13805;SDS011;6974;53.606;9.872;2023-04-06T01:44:26;8.23;;;6.03;;
13805;SDS011;6974;53.606;9.872;2023-04-06T01:46:55;7.40;;;6.43;;
13805;SDS011;6974;53.606;9.872;2023-04-06T01:49:23;10.30;;;6.37;;
13805;SDS011;6974;53.606;9.872;2023-04-06T01:51:50;7.80;;;5.90;;
13805;SDS011;6974;53.606;9.872;2023-04-06T01:54:19;8.37;;;6.13;;
13805;SDS011;6974;53.606;9.872;2023-04-06T01:56:48;7.40;;;5.97;;
13805;SDS011;6974;53.606;9.872;2023-04-06T01:59:17;7.47;;;5.97;;
13805;SDS011;6974;53.606;9.872;2023-04-06T02:01:45;7.37;;;6.13;;
13805;SDS011;6974;53.606;9.872;2023-04-06T02:04:12;8.63;;;6.43;;
13805;SDS011;6974;53.606;9.872;2023-04-06T02:06:40;8.33;;;6.40;;
13805;SDS011;6974;53.606;9.872;2023-04-06T02:09:07;7.53;;;6.20;;
13805;SDS011;6974;53.606;9.872;2023-04-06T02:11:35;9.67;;;6.03;;
13805;SDS011;6974;53.606;9.872;2023-04-06T02:14:03;13.70;;;6.43;;
13805;SDS011;6974;53.606;9.872;2023-04-06T02:16:31;8.10;;;6.03;;
13805;SDS011;6974;53.606;9.872;2023-04-06T02:18:58;11.30;;;5.83;;
13805;SDS011;6974;53.606;9.872;2023-04-06T02:21:25;10.30;;;5.87;;
13805;SDS011;6974;53.606;9.872;2023-04-06T02:23:52;8.47;;;6.37;;
13805;SDS011;6974;53.606;9.872;2023-04-06T02:26:20;9.67;;;6.20;;
13805;SDS011;6974;53.606;9.872;2023-04-06T02:28:47;10.53;;;6.17;;
13805;SDS011;6974;53.606;9.872;2023-04-06T02:31:16;10.10;;;5.60;;
13805;SDS011;6974;53.606;9.872;2023-04-06T02:33:44;8.00;;;6.07;;
13805;SDS011;6974;53.606;9.872;2023-04-06T02:36:11;8.33;;;5.53;;
13805;SDS011;6974;53.606;9.872;2023-04-06T02:38:39;6.80;;;6.03;;
13805;SDS011;6974;53.606;9.872;2023-04-06T02:41:06;8.93;;;6.23;;
13805;SDS011;6974;53.606;9.872;2023-04-06T02:43:34;7.67;;;5.67;;
13805;SDS011;6974;53.606;9.872;2023-04-06T02:46:02;9.60;;;6.13;;
13805;SDS011;6974;53.606;9.872;2023-04-06T02:48:31;12.00;;;5.80;;
13805;SDS011;6974;53.606;9.872;2023-04-06T02:51:01;10.27;;;5.87;;
13805;SDS011;6974;53.606;9.872;2023-04-06T02:53:28;8.90;;;5.60;;
13805;SDS011;6974;53.606;9.872;2023-04-06T02:55:55;6.67;;;5.70;;
13805;SDS011;6974;53.606;9.872;2023-04-06T02:58:22;9.17;;;6.17;;
13805;SDS011;6974;53.606;9.872;2023-04-06T03:00:49;7.40;;;5.40;;
13805;SDS011;6974;53.606;9.872;2023-04-06T03:03:16;7.87;;;5.70;;
13805;SDS011;6974;53.606;9.872;2023-04-06T03:05:44;7.27;;;5.63;;
13805;SDS011;6974;53.606;9.872;2023-04-06T03:08:12;12.30;;;6.40;;
13805;SDS011;6974;53.606;9.872;2023-04-06T03:10:39;10.07;;;5.97;;
13805;SDS011;6974;53.606;9.872;2023-04-06T03:13:06;7.50;;;5.93;;
13805;SDS011;6974;53.606;9.872;2023-04-06T03:15:33;9.80;;;5.50;;
13805;SDS011;6974;53.606;9.872;2023-04-06T03:18:00;7.77;;;5.97;;
13805;SDS011;6974;53.606;9.872;2023-04-06T03:20:27;8.87;;;5.90;;
13805;SDS011;6974;53.606;9.872;2023-04-06T03:22:55;7.90;;;6.00;;
13805;SDS011;6974;53.606;9.872;2023-04-06T03:25:22;9.20;;;6.60;;
13805;SDS011;6974;53.606;9.872;2023-04-06T03:27:49;9.03;;;6.23;;
13805;SDS011;6974;53.606;9.872;2023-04-06T03:30:16;9.50;;;6.10;;
13805;SDS011;6974;53.606;9.872;2023-04-06T03:32:43;8.93;;;6.27;;
13805;SDS011;6974;53.606;9.872;2023-04-06T03:35:10;9.60;;;6.57;;
13805;SDS011;6974;53.606;9.872;2023-04-06T03:37:37;8.23;;;6.00;;
13805;SDS011;6974;53.606;9.872;2023-04-06T03:40:06;8.57;;;6.60;;
13805;SDS011;6974;53.606;9.872;2023-04-06T03:42:33;10.00;;;6.60;;
13805;SDS011;6974;53.606;9.872;2023-04-06T03:45:00;7.40;;;6.13;;
13805;SDS011;6974;53.606;9.872;2023-04-06T03:47:27;10.80;;;6.40;;
13805;SDS011;6974;53.606;9.872;2023-04-06T03:49:54;9.73;;;6.17;;
13805;SDS011;6974;53.606;9.872;2023-04-06T03:52:21;7.37;;;5.97;;
13805;SDS011;6974;53.606;9.872;2023-04-06T03:54:49;9.07;;;6.27;;
13805;SDS011;6974;53.606;9.872;2023-04-06T03:57:17;7.37;;;6.53;;
13805;SDS011;6974;53.606;9.872;2023-04-06T03:59:44;8.67;;;6.17;;
13805;SDS011;6974;53.606;9.872;2023-04-06T04:02:11;8.87;;;6.70;;
13805;SDS011;6974;53.606;9.872;2023-04-06T04:04:38;7.93;;;6.60;;
13805;SDS011;6974;53.606;9.872;2023-04-06T04:07:05;9.30;;;6.40;;
13805;SDS011;6974;53.606;9.872;2023-04-06T04:09:32;10.20;;;6.80;;
13805;SDS011;6974;53.606;9.872;2023-04-06T04:11:59;10.63;;;6.20;;
13805;SDS011;6974;53.606;9.872;2023-04-06T04:14:27;6.77;;;5.93;;
13805;SDS011;6974;53.606;9.872;2023-04-06T04:16:54;8.73;;;6.27;;
13805;SDS011;6974;53.606;9.872;2023-04-06T04:19:21;9.43;;;6.60;;
13805;SDS011;6974;53.606;9.872;2023-04-06T04:21:48;7.40;;;6.20;;
13805;SDS011;6974;53.606;9.872;2023-04-06T04:24:15;7.63;;;6.70;;
13805;SDS011;6974;53.606;9.872;2023-04-06T04:26:42;9.83;;;5.97;;
13805;SDS011;6974;53.606;9.872;2023-04-06T04:29:09;11.37;;;7.40;;
13805;SDS011;6974;53.606;9.872;2023-04-06T04:31:37;10.13;;;7.00;;
13805;SDS011;6974;53.606;9.872;2023-04-06T04:34:04;13.80;;;7.63;;
13805;SDS011;6974;53.606;9.872;2023-04-06T04:36:32;13.37;;;7.33;;
13805;SDS011;6974;53.606;9.872;2023-04-06T04:38:59;12.00;;;7.67;;
13805;SDS011;6974;53.606;9.872;2023-04-06T04:41:27;17.70;;;8.10;;
13805;SDS011;6974;53.606;9.872;2023-04-06T04:43:54;15.73;;;8.43;;
13805;SDS011;6974;53.606;9.872;2023-04-06T04:46:21;12.87;;;7.80;;
13805;SDS011;6974;53.606;9.872;2023-04-06T04:48:49;14.27;;;9.27;;
13805;SDS011;6974;53.606;9.872;2023-04-06T04:51:16;17.73;;;9.27;;
13805;SDS011;6974;53.606;9.872;2023-04-06T04:53:44;16.57;;;8.63;;
13805;SDS011;6974;53.606;9.872;2023-04-06T04:56:12;17.77;;;9.10;;
13805;SDS011;6974;53.606;9.872;2023-04-06T04:58:39;17.23;;;9.30;;
13805;SDS011;6974;53.606;9.872;2023-04-06T05:01:06;17.97;;;9.00;;
13805;SDS011;6974;53.606;9.872;2023-04-06T05:03:33;16.43;;;9.67;;
13805;SDS011;6974;53.606;9.872;2023-04-06T05:06:02;20.33;;;9.20;;
13805;SDS011;6974;53.606;9.872;2023-04-06T05:08:30;20.50;;;9.63;;
13805;SDS011;6974;53.606;9.872;2023-04-06T05:10:57;18.10;;;9.60;;
13805;SDS011;6974;53.606;9.872;2023-04-06T05:13:25;16.57;;;9.37;;
13805;SDS011;6974;53.606;9.872;2023-04-06T05:15:52;21.33;;;9.37;;
13805;SDS011;6974;53.606;9.872;2023-04-06T05:18:21;15.37;;;8.70;;
13805;SDS011;6974;53.606;9.872;2023-04-06T05:20:48;17.70;;;9.17;;
13805;SDS011;6974;53.606;9.872;2023-04-06T05:23:18;15.40;;;8.57;;
13805;SDS011;6974;53.606;9.872;2023-04-06T05:25:45;10.87;;;8.03;;
13805;SDS011;6974;53.606;9.872;2023-04-06T05:28:12;16.43;;;8.50;;
13805;SDS011;6974;53.606;9.872;2023-04-06T05:30:41;11.77;;;8.27;;
13805;SDS011;6974;53.606;9.872;2023-04-06T05:33:09;10.97;;;8.00;;
13805;SDS011;6974;53.606;9.872;2023-04-06T05:35:36;11.13;;;7.93;;
13805;SDS011;6974;53.606;9.872;2023-04-06T05:38:05;13.73;;;8.63;;
13805;SDS011;6974;53.606;9.872;2023-04-06T05:40:36;10.20;;;8.13;;
13805;SDS011;6974;53.606;9.872;2023-04-06T05:43:05;9.93;;;8.37;;
13805;SDS011;6974;53.606;9.872;2023-04-06T05:45:33;10.20;;;8.90;;
13805;SDS011;6974;53.606;9.872;2023-04-06T05:48:02;14.13;;;8.63;;
13805;SDS011;6974;53.606;9.872;2023-04-06T05:50:29;10.93;;;9.13;;
13805;SDS011;6974;53.606;9.872;2023-04-06T05:52:56;13.20;;;8.90;;
13805;SDS011;6974;53.606;9.872;2023-04-06T05:55:23;11.03;;;8.80;;
13805;SDS011;6974;53.606;9.872;2023-04-06T05:57:52;9.80;;;8.60;;
13805;SDS011;6974;53.606;9.872;2023-04-06T06:00:20;9.77;;;8.63;;
13805;SDS011;6974;53.606;9.872;2023-04-06T06:02:47;11.80;;;8.70;;
13805;SDS011;6974;53.606;9.872;2023-04-06T06:05:14;14.00;;;8.80;;
13805;SDS011;6974;53.606;9.872;2023-04-06T06:07:42;12.13;;;9.37;;
13805;SDS011;6974;53.606;9.872;2023-04-06T06:10:10;12.13;;;8.60;;
13805;SDS011;6974;53.606;9.872;2023-04-06T06:12:37;11.10;;;8.83;;
13805;SDS011;6974;53.606;9.872;2023-04-06T06:15:06;11.83;;;8.60;;
13805;SDS011;6974;53.606;9.872;2023-04-06T06:17:34;9.60;;;8.20;;
13805;SDS011;6974;53.606;9.872;2023-04-06T06:20:01;15.10;;;8.80;;
13805;SDS011;6974;53.606;9.872;2023-04-06T06:22:28;9.93;;;8.53;;
13805;SDS011;6974;53.606;9.872;2023-04-06T06:24:55;13.20;;;9.40;;
13805;SDS011;6974;53.606;9.872;2023-04-06T06:27:22;10.87;;;8.90;;
13805;SDS011;6974;53.606;9.872;2023-04-06T06:29:50;13.17;;;9.47;;
13805;SDS011;6974;53.606;9.872;2023-04-06T06:32:18;14.10;;;9.73;;
13805;SDS011;6974;53.606;9.872;2023-04-06T06:34:45;13.77;;;9.07;;
13805;SDS011;6974;53.606;9.872;2023-04-06T06:37:13;14.47;;;9.73;;
13805;SDS011;6974;53.606;9.872;2023-04-06T06:39:40;15.07;;;9.07;;
13805;SDS011;6974;53.606;9.872;2023-04-06T06:42:07;11.40;;;9.03;;
13805;SDS011;6974;53.606;9.872;2023-04-06T06:44:34;13.43;;;10.67;;
13805;SDS011;6974;53.606;9.872;2023-04-06T06:47:01;15.80;;;10.37;;
13805;SDS011;6974;53.606;9.872;2023-04-06T06:49:30;11.80;;;8.83;;
13805;SDS011;6974;53.606;9.872;2023-04-06T06:51:57;13.53;;;9.47;;
13805;SDS011;6974;53.606;9.872;2023-04-06T06:54:24;11.67;;;9.07;;
13805;SDS011;6974;53.606;9.872;2023-04-06T06:56:51;14.63;;;8.87;;
13805;SDS011;6974;53.606;9.872;2023-04-06T06:59:19;13.73;;;9.57;;
13805;SDS011;6974;53.606;9.872;2023-04-06T07:01:49;15.83;;;9.13;;
13805;SDS011;6974;53.606;9.872;2023-04-06T07:04:16;13.17;;;8.73;;
13805;SDS011;6974;53.606;9.872;2023-04-06T07:06:45;12.57;;;8.03;;
13805;SDS011;6974;53.606;9.872;2023-04-06T07:09:12;12.53;;;8.17;;
13805;SDS011;6974;53.606;9.872;2023-04-06T07:11:39;9.47;;;8.00;;
13805;SDS011;6974;53.606;9.872;2023-04-06T07:14:06;13.80;;;8.27;;
13805;SDS011;6974;53.606;9.872;2023-04-06T07:16:33;11.03;;;7.10;;
13805;SDS011;6974;53.606;9.872;2023-04-06T07:19:00;14.70;;;8.20;;
13805;SDS011;6974;53.606;9.872;2023-04-06T07:21:28;12.73;;;7.97;;
13805;SDS011;6974;53.606;9.872;2023-04-06T07:23:57;13.67;;;8.00;;
13805;SDS011;6974;53.606;9.872;2023-04-06T07:26:24;13.00;;;8.13;;
13805;SDS011;6974;53.606;9.872;2023-04-06T07:28:51;9.47;;;7.57;;
13805;SDS011;6974;53.606;9.872;2023-04-06T07:31:19;11.53;;;7.00;;
13805;SDS011;6974;53.606;9.872;2023-04-06T07:33:46;14.27;;;7.30;;
13805;SDS011;6974;53.606;9.872;2023-04-06T07:36:15;14.07;;;7.93;;
13805;SDS011;6974;53.606;9.872;2023-04-06T07:38:42;10.73;;;7.03;;
13805;SDS011;6974;53.606;9.872;2023-04-06T07:41:12;15.10;;;7.47;;
13805;SDS011;6974;53.606;9.872;2023-04-06T07:43:39;13.00;;;8.07;;
13805;SDS011;6974;53.606;9.872;2023-04-06T07:46:07;11.10;;;7.37;;
13805;SDS011;6974;53.606;9.872;2023-04-06T07:48:34;12.00;;;7.93;;
13805;SDS011;6974;53.606;9.872;2023-04-06T07:51:02;11.20;;;7.77;;
13805;SDS011;6974;53.606;9.872;2023-04-06T07:53:31;10.97;;;7.73;;
13805;SDS011;6974;53.606;9.872;2023-04-06T07:55:58;13.80;;;7.33;;
13805;SDS011;6974;53.606;9.872;2023-04-06T07:58:28;10.80;;;6.60;;
13805;SDS011;6974;53.606;9.872;2023-04-06T08:00:55;8.17;;;6.50;;
13805;SDS011;6974;53.606;9.872;2023-04-06T08:03:23;9.03;;;7.00;;
13805;SDS011;6974;53.606;9.872;2023-04-06T08:05:51;14.00;;;6.83;;
13805;SDS011;6974;53.606;9.872;2023-04-06T08:08:18;7.03;;;6.27;;
13805;SDS011;6974;53.606;9.872;2023-04-06T08:10:46;8.43;;;6.23;;
13805;SDS011;6974;53.606;9.872;2023-04-06T08:13:13;7.90;;;6.10;;
13805;SDS011;6974;53.606;9.872;2023-04-06T08:15:42;10.87;;;6.03;;
13805;SDS011;6974;53.606;9.872;2023-04-06T08:18:09;8.30;;;5.20;;
13805;SDS011;6974;53.606;9.872;2023-04-06T08:20:37;7.57;;;5.73;;
13805;SDS011;6974;53.606;9.872;2023-04-06T08:23:04;10.27;;;5.37;;
13805;SDS011;6974;53.606;9.872;2023-04-06T08:25:34;6.20;;;5.17;;
13805;SDS011;6974;53.606;9.872;2023-04-06T08:28:02;7.93;;;5.40;;
13805;SDS011;6974;53.606;9.872;2023-04-06T08:30:29;10.10;;;6.13;;
13805;SDS011;6974;53.606;9.872;2023-04-06T08:32:58;5.97;;;5.20;;
13805;SDS011;6974;53.606;9.872;2023-04-06T08:35:26;7.63;;;5.87;;
13805;SDS011;6974;53.606;9.872;2023-04-06T08:37:53;10.03;;;6.50;;
13805;SDS011;6974;53.606;9.872;2023-04-06T08:40:20;8.47;;;6.87;;
13805;SDS011;6974;53.606;9.872;2023-04-06T08:42:49;7.50;;;6.70;;
13805;SDS011;6974;53.606;9.872;2023-04-06T08:45:18;8.23;;;6.50;;
13805;SDS011;6974;53.606;9.872;2023-04-06T08:47:46;8.73;;;6.33;;
13805;SDS011;6974;53.606;9.872;2023-04-06T08:50:16;9.10;;;6.57;;
13805;SDS011;6974;53.606;9.872;2023-04-06T08:52:44;10.27;;;7.33;;
13805;SDS011;6974;53.606;9.872;2023-04-06T08:55:14;8.17;;;6.57;;
13805;SDS011;6974;53.606;9.872;2023-04-06T08:57:41;10.07;;;6.70;;
13805;SDS011;6974;53.606;9.872;2023-04-06T09:00:09;7.50;;;6.50;;
13805;SDS011;6974;53.606;9.872;2023-04-06T09:02:38;7.87;;;6.47;;
13805;SDS011;6974;53.606;9.872;2023-04-06T09:05:07;10.53;;;6.97;;
13805;SDS011;6974;53.606;9.872;2023-04-06T09:07:36;7.73;;;5.63;;
13805;SDS011;6974;53.606;9.872;2023-04-06T09:10:03;7.20;;;6.17;;
13805;SDS011;6974;53.606;9.872;2023-04-06T09:12:31;7.70;;;6.10;;
13805;SDS011;6974;53.606;9.872;2023-04-06T09:14:59;7.67;;;5.90;;
13805;SDS011;6974;53.606;9.872;2023-04-06T09:17:27;6.00;;;5.03;;
13805;SDS011;6974;53.606;9.872;2023-04-06T09:19:57;7.00;;;5.53;;
13805;SDS011;6974;53.606;9.872;2023-04-06T09:22:25;7.63;;;6.37;;
13805;SDS011;6974;53.606;9.872;2023-04-06T09:25:02;7.13;;;5.60;;
13805;SDS011;6974;53.606;9.872;2023-04-06T09:27:30;6.67;;;5.53;;
13805;SDS011;6974;53.606;9.872;2023-04-06T09:30:03;6.57;;;5.60;;
13805;SDS011;6974;53.606;9.872;2023-04-06T09:32:31;10.50;;;6.00;;
13805;SDS011;6974;53.606;9.872;2023-04-06T09:35:05;8.37;;;5.57;;
13805;SDS011;6974;53.606;9.872;2023-04-06T09:37:33;7.93;;;5.60;;
13805;SDS011;6974;53.606;9.872;2023-04-06T09:40:05;6.63;;;5.30;;
13805;SDS011;6974;53.606;9.872;2023-04-06T09:42:33;7.40;;;5.60;;
13805;SDS011;6974;53.606;9.872;2023-04-06T09:45:01;6.80;;;5.20;;
13805;SDS011;6974;53.606;9.872;2023-04-06T09:47:28;7.93;;;5.53;;
13805;SDS011;6974;53.606;9.872;2023-04-06T09:49:58;6.40;;;5.03;;
13805;SDS011;6974;53.606;9.872;2023-04-06T09:52:26;7.80;;;5.40;;
13805;SDS011;6974;53.606;9.872;2023-04-06T09:54:55;11.30;;;5.70;;
13805;SDS011;6974;53.606;9.872;2023-04-06T09:57:28;8.57;;;5.97;;
13805;SDS011;6974;53.606;9.872;2023-04-06T10:00:01;5.67;;;4.80;;
13805;SDS011;6974;53.606;9.872;2023-04-06T10:02:34;6.53;;;5.00;;
13805;SDS011;6974;53.606;9.872;2023-04-06T10:05:08;6.20;;;4.90;;
13805;SDS011;6974;53.606;9.872;2023-04-06T10:07:39;6.57;;;4.83;;
13805;SDS011;6974;53.606;9.872;2023-04-06T10:10:06;6.73;;;4.80;;
13805;SDS011;6974;53.606;9.872;2023-04-06T10:12:35;7.33;;;4.73;;
13805;SDS011;6974;53.606;9.872;2023-04-06T10:15:03;7.73;;;5.13;;
13805;SDS011;6974;53.606;9.872;2023-04-06T10:17:30;5.80;;;4.37;;
13805;SDS011;6974;53.606;9.872;2023-04-06T10:19:59;5.83;;;5.10;;
13805;SDS011;6974;53.606;9.872;2023-04-06T10:22:32;5.23;;;4.73;;
13805;SDS011;6974;53.606;9.872;2023-04-06T10:25:03;7.27;;;5.30;;
13805;SDS011;6974;53.606;9.872;2023-04-06T10:27:30;6.30;;;5.00;;
13805;SDS011;6974;53.606;9.872;2023-04-06T10:30:04;6.43;;;4.77;;
13805;SDS011;6974;53.606;9.872;2023-04-06T10:32:32;5.37;;;4.80;;
13805;SDS011;6974;53.606;9.872;2023-04-06T10:35:07;5.40;;;4.70;;
13805;SDS011;6974;53.606;9.872;2023-04-06T10:37:46;7.17;;;5.07;;
13805;SDS011;6974;53.606;9.872;2023-04-06T10:40:18;8.33;;;4.73;;
13805;SDS011;6974;53.606;9.872;2023-04-06T10:42:45;5.47;;;4.67;;
13805;SDS011;6974;53.606;9.872;2023-04-06T10:45:20;5.60;;;5.10;;
13805;SDS011;6974;53.606;9.872;2023-04-06T10:47:51;5.03;;;4.50;;
13805;SDS011;6974;53.606;9.872;2023-04-06T10:50:19;6.13;;;5.43;;
13805;SDS011;6974;53.606;9.872;2023-04-06T10:52:46;5.33;;;4.87;;
13805;SDS011;6974;53.606;9.872;2023-04-06T10:55:24;5.73;;;4.80;;
13805;SDS011;6974;53.606;9.872;2023-04-06T10:57:52;7.27;;;5.10;;
13805;SDS011;6974;53.606;9.872;2023-04-06T11:00:21;6.80;;;5.30;;
13805;SDS011;6974;53.606;9.872;2023-04-06T11:02:49;6.33;;;4.97;;
13805;SDS011;6974;53.606;9.872;2023-04-06T11:05:16;5.73;;;5.00;;
13805;SDS011;6974;53.606;9.872;2023-04-06T11:07:43;6.10;;;4.70;;
13805;SDS011;6974;53.606;9.872;2023-04-06T11:10:10;7.60;;;5.80;;
13805;SDS011;6974;53.606;9.872;2023-04-06T11:12:37;9.97;;;6.07;;
13805;SDS011;6974;53.606;9.872;2023-04-06T11:15:05;6.60;;;5.40;;
13805;SDS011;6974;53.606;9.872;2023-04-06T11:17:34;6.10;;;5.50;;
13805;SDS011;6974;53.606;9.872;2023-04-06T11:20:03;7.00;;;6.30;;
13805;SDS011;6974;53.606;9.872;2023-04-06T11:22:35;7.70;;;6.30;;
13805;SDS011;6974;53.606;9.872;2023-04-06T11:25:05;6.90;;;5.57;;
13805;SDS011;6974;53.606;9.872;2023-04-06T11:27:33;7.20;;;6.10;;
13805;SDS011;6974;53.606;9.872;2023-04-06T11:30:01;7.50;;;6.13;;
13805;SDS011;6974;53.606;9.872;2023-04-06T11:32:28;7.17;;;6.13;;
13805;SDS011;6974;53.606;9.872;2023-04-06T11:35:12;9.00;;;6.27;;
13805;SDS011;6974;53.606;9.872;2023-04-06T11:37:46;8.47;;;6.23;;
13805;SDS011;6974;53.606;9.872;2023-04-06T11:40:14;8.17;;;6.27;;
13805;SDS011;6974;53.606;9.872;2023-04-06T11:42:41;6.93;;;6.23;;
13805;SDS011;6974;53.606;9.872;2023-04-06T11:45:17;7.63;;;6.83;;
13805;SDS011;6974;53.606;9.872;2023-04-06T11:47:44;7.50;;;6.70;;
13805;SDS011;6974;53.606;9.872;2023-04-06T11:50:13;8.60;;;7.13;;
13805;SDS011;6974;53.606;9.872;2023-04-06T11:52:41;7.70;;;7.00;;
13805;SDS011;6974;53.606;9.872;2023-04-06T11:55:12;7.23;;;6.53;;
13805;SDS011;6974;53.606;9.872;2023-04-06T11:57:40;7.53;;;6.73;;
13805;SDS011;6974;53.606;9.872;2023-04-06T12:00:08;8.17;;;7.30;;
13805;SDS011;6974;53.606;9.872;2023-04-06T12:02:35;8.00;;;7.00;;
13805;SDS011;6974;53.606;9.872;2023-04-06T12:05:03;7.40;;;6.70;;
13805;SDS011;6974;53.606;9.872;2023-04-06T12:07:33;7.90;;;7.10;;
13805;SDS011;6974;53.606;9.872;2023-04-06T12:10:01;9.57;;;7.07;;
13805;SDS011;6974;53.606;9.872;2023-04-06T12:12:29;8.43;;;7.20;;
13805;SDS011;6974;53.606;9.872;2023-04-06T12:14:56;8.90;;;7.60;;
13805;SDS011;6974;53.606;9.872;2023-04-06T12:17:24;8.93;;;7.30;;
13805;SDS011;6974;53.606;9.872;2023-04-06T12:19:52;8.97;;;6.77;;
13805;SDS011;6974;53.606;9.872;2023-04-06T12:22:19;9.03;;;7.43;;
13805;SDS011;6974;53.606;9.872;2023-04-06T12:24:47;8.03;;;7.23;;
13805;SDS011;6974;53.606;9.872;2023-04-06T12:27:14;10.17;;;7.47;;
13805;SDS011;6974;53.606;9.872;2023-04-06T12:29:41;10.20;;;6.80;;
13805;SDS011;6974;53.606;9.872;2023-04-06T12:32:08;7.10;;;6.40;;
13805;SDS011;6974;53.606;9.872;2023-04-06T12:34:35;10.80;;;7.57;;
13805;SDS011;6974;53.606;9.872;2023-04-06T12:37:03;8.07;;;7.17;;
13805;SDS011;6974;53.606;9.872;2023-04-06T12:39:30;7.53;;;6.80;;
13805;SDS011;6974;53.606;9.872;2023-04-06T12:41:59;8.00;;;7.23;;
13805;SDS011;6974;53.606;9.872;2023-04-06T12:44:26;8.03;;;7.13;;
13805;SDS011;6974;53.606;9.872;2023-04-06T12:46:53;8.50;;;7.27;;
13805;SDS011;6974;53.606;9.872;2023-04-06T12:49:20;13.63;;;7.97;;
13805;SDS011;6974;53.606;9.872;2023-04-06T12:51:47;9.53;;;7.80;;
13805;SDS011;6974;53.606;9.872;2023-04-06T12:54:15;10.23;;;8.03;;
13805;SDS011;6974;53.606;9.872;2023-04-06T12:56:42;9.07;;;7.27;;
13805;SDS011;6974;53.606;9.872;2023-04-06T12:59:10;9.63;;;7.43;;
13805;SDS011;6974;53.606;9.872;2023-04-06T13:01:37;8.33;;;7.43;;
13805;SDS011;6974;53.606;9.872;2023-04-06T13:04:04;7.77;;;6.87;;
13805;SDS011;6974;53.606;9.872;2023-04-06T13:06:31;9.33;;;8.27;;
13805;SDS011;6974;53.606;9.872;2023-04-06T13:08:58;9.50;;;7.83;;
13805;SDS011;6974;53.606;9.872;2023-04-06T13:11:25;8.63;;;7.73;;
13805;SDS011;6974;53.606;9.872;2023-04-06T13:13:52;8.30;;;7.47;;
13805;SDS011;6974;53.606;9.872;2023-04-06T13:16:20;10.87;;;7.73;;
13805;SDS011;6974;53.606;9.872;2023-04-06T13:18:47;9.03;;;7.93;;
13805;SDS011;6974;53.606;9.872;2023-04-06T13:21:15;10.00;;;8.20;;
13805;SDS011;6974;53.606;9.872;2023-04-06T13:23:42;10.53;;;8.60;;
13805;SDS011;6974;53.606;9.872;2023-04-06T13:26:09;8.20;;;7.37;;
13805;SDS011;6974;53.606;9.872;2023-04-06T13:28:38;8.63;;;7.67;;
13805;SDS011;6974;53.606;9.872;2023-04-06T13:31:05;8.87;;;7.77;;
13805;SDS011;6974;53.606;9.872;2023-04-06T13:33:34;9.13;;;7.60;;
13805;SDS011;6974;53.606;9.872;2023-04-06T13:36:01;9.67;;;7.93;;
13805;SDS011;6974;53.606;9.872;2023-04-06T13:38:29;8.73;;;7.70;;
13805;SDS011;6974;53.606;9.872;2023-04-06T13:40:56;9.63;;;8.20;;
13805;SDS011;6974;53.606;9.872;2023-04-06T13:43:23;8.30;;;7.50;;
13805;SDS011;6974;53.606;9.872;2023-04-06T13:45:52;11.13;;;7.80;;
13805;SDS011;6974;53.606;9.872;2023-04-06T13:48:20;9.93;;;7.87;;
13805;SDS011;6974;53.606;9.872;2023-04-06T13:50:49;10.27;;;7.67;;
13805;SDS011;6974;53.606;9.872;2023-04-06T13:53:16;7.93;;;7.13;;
13805;SDS011;6974;53.606;9.872;2023-04-06T13:55:43;7.70;;;6.90;;
13805;SDS011;6974;53.606;9.872;2023-04-06T13:58:10;8.50;;;7.60;;
13805;SDS011;6974;53.606;9.872;2023-04-06T14:00:37;7.27;;;6.57;;
13805;SDS011;6974;53.606;9.872;2023-04-06T14:03:03;8.10;;;7.30;;
13805;SDS011;6974;53.606;9.872;2023-04-06T14:05:32;8.57;;;7.77;;
13805;SDS011;6974;53.606;9.872;2023-04-06T14:08:00;8.03;;;7.13;;
13805;SDS011;6974;53.606;9.872;2023-04-06T14:10:27;7.83;;;7.00;;
13805;SDS011;6974;53.606;9.872;2023-04-06T14:12:54;7.10;;;6.40;;
13805;SDS011;6974;53.606;9.872;2023-04-06T14:15:23;8.23;;;5.97;;
13805;SDS011;6974;53.606;9.872;2023-04-06T14:17:50;13.27;;;7.20;;
13805;SDS011;6974;53.606;9.872;2023-04-06T14:20:17;7.57;;;6.80;;
13805;SDS011;6974;53.606;9.872;2023-04-06T14:22:44;7.53;;;6.83;;
13805;SDS011;6974;53.606;9.872;2023-04-06T14:25:13;6.97;;;6.37;;
13805;SDS011;6974;53.606;9.872;2023-04-06T14:27:41;9.90;;;6.23;;
13805;SDS011;6974;53.606;9.872;2023-04-06T14:30:08;7.80;;;6.43;;
13805;SDS011;6974;53.606;9.872;2023-04-06T14:32:36;8.03;;;7.03;;
13805;SDS011;6974;53.606;9.872;2023-04-06T14:35:03;7.67;;;6.77;;
13805;SDS011;6974;53.606;9.872;2023-04-06T14:37:30;7.20;;;6.47;;
13805;SDS011;6974;53.606;9.872;2023-04-06T14:39:57;7.27;;;6.57;;
13805;SDS011;6974;53.606;9.872;2023-04-06T14:42:25;7.53;;;6.47;;
13805;SDS011;6974;53.606;9.872;2023-04-06T14:44:52;10.70;;;7.10;;
13805;SDS011;6974;53.606;9.872;2023-04-06T14:47:19;8.03;;;6.87;;
13805;SDS011;6974;53.606;9.872;2023-04-06T14:49:46;10.27;;;7.73;;
13805;SDS011;6974;53.606;9.872;2023-04-06T14:52:13;8.57;;;7.10;;
13805;SDS011;6974;53.606;9.872;2023-04-06T14:54:40;9.97;;;7.20;;
13805;SDS011;6974;53.606;9.872;2023-04-06T14:57:07;7.30;;;6.60;;
13805;SDS011;6974;53.606;9.872;2023-04-06T14:59:35;7.83;;;7.00;;
13805;SDS011;6974;53.606;9.872;2023-04-06T15:02:03;8.40;;;7.57;;